View Sortable Currents For Network
ASOSAWOSCoCoRaHSCOOPDCPISUSM
SchoolNetOtherSCANMy FavoritesBy StateRWIS
RWIS SurfaceRWIS TrafficRWIS SoilBy NWS WFO

Current AWOS Conditions

** This page will automatically refresh every five minutes.
Sorted by: (Today Rainfall)     Click on a column to sort it.

Add ID: Name: Ob Time   Wind [knots]   Rainfall
Temp (Hi / Lo) DewP Feels RH% Dir Speed Peak Gust
@ Time
Alti Vsby Hour Today
ICLCLARINDA11:35 PM 64(75/64) 64 100 0 018 @ 01:55 PM 30.09 10 0 0.51
SDASHENANDOAH MUNI11:35 PM 66(73/66) 66 100 0 018 @ 12:15 PM 30.08 10 0 0.29
IFAIowa Falls11:55 PM 68(85/60) 65 90 0 05 @ 09:55 AM 30.11 10 0 0.02
FODFORT DODGE17 Jul 10:56 PM 68(85/61) 63 84 0 06 @ 10:00 AM 30.09 10 0 0.0001
RDKRED OAK11:35 PM 66(75/64) 64 93 0 016 @ 12:15 PM 30.07 10 0
SHLSHELDON11:35 PM 66(82/61) 66 68 100 130 311 @ 01:35 PM 30.08 10 0
OXVKnoxville11:35 PM 70(84/63) 63 71 78 140 411 @ 01:15 PM 30.07 10 0
ORCOrange City11:35 PM 72(84/68) 63 73 0 06 @ 01:15 PM 30.11 10 0
BNWBOONE MUNI11:35 PM 72(84/64) 63 73 0 06 @ 12:35 PM 30.09 10 0
MUTMUSCATINE11:35 PM 70(88/63) 66 87 0 08 @ 11:35 AM 30.08 10 0
OLZOELWEIN11:35 PM 66(82/63) 63 67 90 80 411 @ 02:35 PM 30.11 10 0
SLBStorm Lake11:35 PM 66(81/63) 61 84 0 08 @ 02:15 PM 30.1 10 0
ADUAUDUBON11:35 PM 63(81/63) 61 93 0 05 @ 10:35 AM 30.11 10 0
EBSWebster City11:35 PM 66(86/59) 61 84 0 06 @ 09:35 AM 30.07 0
AWGWASHINGTON11:35 PM 72(86/63) 66 73 81 30 67 @ 12:15 AM 30.09 10 0
MPZMOUNT PLEASANT11:35 PM 64(86/59) 63 97 0 06 @ 01:15 AM 30.08 10 0
HPTHampton11:35 PM 64(82/59) 64 66 100 70 35 @ 09:15 AM 30.11 10 0
CINCARROLL11:35 PM 63(82/61) 63 100 0 011 @ 12:35 PM 30.09 10 0
AIOATLANTIC11:35 PM 64(79/64) 64 66 100 360 48 @ 12:55 PM 30.09 10 0
LRJLE MARS11:35 PM 66(84/64) 63 90 0 013 @ 02:15 PM 30.09 10 0
CSQCRESTON11:35 PM 68(79/64) 64 69 87 60 615 @ 04:35 PM 30.1 10 0
FXYForest City11:35 PM 66(82/57) 63 90 0 06 @ 11:35 AM 30.11 10 0
FFLFAIRFIELD11:35 PM 68(84/61) 64 87 0 010 @ 02:55 PM 30.08 10 0
CBFCOUNCIL BLUFFS11:35 PM 68(75/64) 66 93 0 018 @ 10:35 AM 30.08 10 0
DNSDENISON11:35 PM 66(81/64) 64 93 0 011 @ 12:35 PM 30.11 10 0
I75Osceola11:35 PM 67(83/63) 65 69 93 70 36 @ 12:55 PM 30.09 10 0
HNRHARLAN11:35 PM 63(79/63) 63 100 0 010 @ 12:15 PM 30.09 10 0
GGIGrinnell11:35 PM 67(86/62) 63 87 0 06 @ 11:55 AM 30.1 10 0
EOKKEOKUK MUNI11:35 PM 70(84/63) 68 93 0 011 @ 03:35 PM 30.07 10 0
PROPerry11:35 PM 65(86/61) 65 100 0 06 @ 11:55 AM 30.09 10 0
OOAOskaloosa11:35 PM 68(85/61) 62 81 0 06 @ 12:15 AM 30.09 10 0
TVKCenterville11:35 PM 68(86/57) 64 87 0 07 @ 01:15 PM 30.1 10 0
PEAPELLA11:55 PM 68(86/64) 63 84 0 05 @ 10:15 AM 30.09 10 0
VTIVINTON11:55 PM 71(91/61) 66 84 0 05 @ 10:15 AM 30.1 10 0
AXAALGONA11:35 PM 70(84/61) 63 71 78 90 513 @ 06:35 AM 30.1 10 0
CAVCLARION11:35 PM 68(84/59) 64 69 87 70 45 @ 08:35 AM 30.1 10 0
CWICLINTON17 Jul 10:56 PM 68(85/62) 64 69 87 70 69 @ 03:15 PM 30.1 10 0
MXOMONTICELLO MUNI11:35 PM 66(84/59) 64 93 0 07 @ 12:55 PM 30.09 10 0
DEHDECORAH11:35 PM 66(79/61) 59 78 0 012 @ 03:35 AM 30.11 10 0
CKPCherokee11:35 PM 66(84/64) 64 93 0 07 @ 03:35 PM 30.1 10 0
CNCCHARITON11:35 PM 72(84/63) 63 73 73 90 412 @ 02:15 PM 30.09 10 0
IKVANKENY11:35 PM 66(84/63) 64 93 0 011 @ 02:35 PM 30.09 10 0
CCYCHARLES CITY11:55 PM 66(81/61) 61 66 84 70 410 @ 05:35 PM 30.12 10 0
TNUNEWTON MUNI11:35 PM 70(84/64) 64 71 81 70 36 @ 06:35 AM 30.09 10 0
IIBINDEPENDENCE11:35 PM 68(84/58) 60 68 76 90 47 @ 03:35 PM 30.1 10 0
FSWFORT MADISON11:35 PM 66(84/61) 64 93 0 05 @ 11:55 AM 30.08 10 0